createdAt,value
2023-12-12T00:02:12.554Z,100734.03
2023-12-12T00:04:39.228Z,100731.56
2023-12-12T00:07:06.024Z,100724.25
2023-12-12T00:09:32.711Z,100717.28
2023-12-12T00:11:59.391Z,100714.63
2023-12-12T00:14:28.538Z,100712.38
2023-12-12T00:16:57.410Z,100703.34
2023-12-12T00:19:24.091Z,100695.06
2023-12-12T00:21:51.157Z,100699.47
2023-12-12T00:24:17.805Z,100690.78
2023-12-12T00:26:46.589Z,100684.50
2023-12-12T00:29:13.424Z,100681.38
2023-12-12T00:31:40.133Z,100682.56
2023-12-12T00:34:09.057Z,100673.88
2023-12-12T00:36:35.872Z,100670.75
2023-12-12T00:39:02.550Z,100665.66
2023-12-12T00:41:33.896Z,100663.31
2023-12-12T00:44:00.676Z,100658.94
2023-12-12T00:46:27.648Z,100647.84
2023-12-12T00:48:54.423Z,100653.03
2023-12-12T00:51:21.200Z,100647.47
2023-12-12T00:53:50.056Z,100643.94
2023-12-12T00:56:16.852Z,100638.81
2023-12-12T00:58:43.580Z,100632.50
2023-12-12T01:01:12.250Z,100628.13
2023-12-12T01:03:39.578Z,100625.34
2023-12-12T01:06:07.099Z,100621.03
2023-12-12T01:08:34.555Z,100621.44
2023-12-12T01:11:01.232Z,100621.44
2023-12-12T01:13:27.930Z,100618.31
2023-12-12T01:15:57.191Z,100613.53
2023-12-12T01:18:23.869Z,100609.97
2023-12-12T01:20:50.566Z,100608.44
2023-12-12T01:23:17.213Z,100604.06
2023-12-12T01:25:46.462Z,100597.31
2023-12-12T01:28:15.402Z,100602.88
2023-12-12T01:30:42.034Z,100594.53
2023-12-12T01:33:08.721Z,100587.41
2023-12-12T01:35:37.595Z,100589.00
2023-12-12T01:38:04.278Z,100581.84
2023-12-12T01:40:33.141Z,100577.09
2023-12-12T01:43:08.848Z,100575.09
2023-12-12T01:45:37.842Z,100570.00
2023-12-12T01:48:04.991Z,100560.88
2023-12-12T01:50:31.672Z,100552.53
2023-12-12T01:52:58.447Z,100563.66
2023-12-12T01:55:27.567Z,100562.44
2023-12-12T01:57:54.447Z,100552.53
2023-12-12T02:00:21.089Z,100549.78
2023-12-12T02:02:47.827Z,100558.09
2023-12-12T02:05:15.230Z,100554.97
2023-12-12T02:07:42.502Z,100550.97
2023-12-12T02:10:09.813Z,100546.63
2023-12-12T02:12:39.027Z,100551.41
2023-12-12T02:15:06.260Z,100547.06
2023-12-12T02:17:33.140Z,100543.06
2023-12-12T02:20:00.120Z,100541.09
2023-12-12T02:22:27.388Z,100530.41
2023-12-12T02:24:56.845Z,100526.84
2023-12-12T02:27:25.909Z,100530.84
2023-12-12T02:29:55.010Z,100520.16
2023-12-12T02:32:21.747Z,100518.19
2023-12-12T02:34:48.426Z,100509.84
2023-12-12T02:37:15.194Z,100503.50
2023-12-12T02:39:42.935Z,100500.72
2023-12-12T02:42:09.554Z,100495.19
2023-12-12T02:44:38.406Z,100490.06
2023-12-12T02:47:07.566Z,100499.94
2023-12-12T02:49:34.348Z,100497.16
2023-12-12T02:52:01.121Z,100490.06
2023-12-12T02:54:27.843Z,100491.63
2023-12-12T02:56:55.400Z,100477.75
2023-12-12T02:59:22.038Z,100480.50
2023-12-12T03:01:49.894Z,100467.06
2023-12-12T03:04:16.795Z,100461.53
2023-12-12T03:06:45.755Z,100458.31
2023-12-12T03:09:13.054Z,100453.97
2023-12-12T03:11:39.728Z,100453.19
2023-12-12T03:14:08.882Z,100447.63
2023-12-12T03:16:35.676Z,100447.63
2023-12-12T03:19:04.870Z,100459.53
2023-12-12T03:21:34.022Z,100448.44
2023-12-12T03:24:03.221Z,100447.63
2023-12-12T03:26:32.032Z,100442.09
2023-12-12T03:29:00.903Z,100436.09
2023-12-12T03:31:27.496Z,100425.44
2023-12-12T03:33:54.140Z,100423.44
2023-12-12T03:36:20.812Z,100416.31
2023-12-12T03:38:47.523Z,100414.34
2023-12-12T03:41:14.157Z,100412.78
2023-12-12T03:43:40.751Z,100411.56
2023-12-12T03:46:12.009Z,100409.56
2023-12-12T03:48:38.665Z,100386.56
2023-12-12T03:51:05.848Z,100383.00
2023-12-12T03:53:34.817Z,100383.00
2023-12-12T03:56:01.481Z,100372.69
2023-12-12T03:58:28.151Z,100379.03
2023-12-12T04:00:55.025Z,100383.00
2023-12-12T04:03:22.112Z,100367.94
2023-12-12T04:05:51.127Z,100371.16
2023-12-12T04:08:17.765Z,100379.47
2023-12-12T04:10:46.884Z,100363.59
2023-12-12T04:13:13.634Z,100369.13
2023-12-12T04:15:40.460Z,100362.03
2023-12-12T04:18:14.495Z,100362.03
2023-12-12T04:20:43.394Z,100361.25
2023-12-12T04:23:12.259Z,100364.81
2023-12-12T04:25:38.914Z,100358.47
2023-12-12T04:28:05.569Z,100365.59
2023-12-12T04:30:34.685Z,100354.50
2023-12-12T04:33:10.533Z,100353.72
2023-12-12T04:35:37.400Z,100347.38
2023-12-12T04:38:04.140Z,100348.16
2023-12-12T04:40:31.081Z,100346.16
2023-12-12T04:42:57.875Z,100350.94
2023-12-12T04:45:27.054Z,100337.06
2023-12-12T04:47:53.827Z,100327.94
2023-12-12T04:50:20.812Z,100335.06
2023-12-12T04:52:50.049Z,100337.06
2023-12-12T04:55:16.747Z,100329.50
2023-12-12T04:57:44.569Z,100336.25
2023-12-12T05:00:15.000Z,100321.19
2023-12-12T05:02:42.918Z,100328.72
2023-12-12T05:05:12.141Z,100337.84
2023-12-12T05:07:38.870Z,100325.94
2023-12-12T05:10:07.972Z,100325.94
2023-12-12T05:12:37.661Z,100332.69
2023-12-12T05:15:06.781Z,100337.06
2023-12-12T05:17:33.965Z,100325.94
2023-12-12T05:20:01.847Z,100332.28
2023-12-12T05:22:35.800Z,100329.94
2023-12-12T05:25:06.437Z,100323.19
2023-12-12T05:27:33.357Z,100306.97
2023-12-12T05:30:00.173Z,100316.03
2023-12-12T05:32:27.065Z,100313.28
2023-12-12T05:34:53.919Z,100312.50
2023-12-12T05:37:22.842Z,100310.16
2023-12-12T05:39:51.706Z,100309.41
2023-12-12T05:42:18.288Z,100306.63
2023-12-12T05:44:47.358Z,100305.84
2023-12-12T05:47:14.129Z,100294.72
2023-12-12T05:49:41.066Z,100297.50
2023-12-12T05:52:10.161Z,100297.50
2023-12-12T05:54:36.850Z,100299.50
2023-12-12T05:57:03.662Z,100302.28
2023-12-12T05:59:32.700Z,100300.72
2023-12-12T06:01:59.460Z,100300.72
2023-12-12T06:04:26.281Z,100296.38
2023-12-12T06:06:55.428Z,100297.94
2023-12-12T06:09:25.065Z,100302.72
2023-12-12T06:11:51.650Z,100303.50
2023-12-12T06:14:22.890Z,100300.72
2023-12-12T06:16:49.550Z,100292.81
2023-12-12T06:19:19.199Z,100297.59
2023-12-12T06:21:47.706Z,100297.25
2023-12-12T06:24:15.236Z,100287.34
2023-12-12T06:26:44.806Z,100292.13
2023-12-12T06:29:14.536Z,100288.59
2023-12-12T06:31:44.392Z,100275.13
2023-12-12T06:34:14.187Z,100281.13
2023-12-12T06:36:41.346Z,100276.81
2023-12-12T06:39:11.333Z,100277.22
2023-12-12T06:41:40.544Z,100279.66
2023-12-12T06:44:09.571Z,100275.31
2023-12-12T06:46:38.136Z,100282.06
2023-12-12T06:49:07.987Z,100272.22
2023-12-12T06:51:37.564Z,100279.75
2023-12-12T06:54:06.432Z,100284.94
2023-12-12T06:56:33.192Z,100288.16
2023-12-12T06:59:02.789Z,100290.94
2023-12-12T07:01:29.550Z,100279.84
2023-12-12T07:03:58.974Z,100287.38
2023-12-12T07:06:28.121Z,100277.50
2023-12-12T07:08:57.173Z,100283.06
2023-12-12T07:11:26.317Z,100275.16
2023-12-12T07:13:52.977Z,100267.59
2023-12-12T07:16:19.834Z,100270.38
2023-12-12T07:18:46.552Z,100268.84
2023-12-12T07:21:16.300Z,100261.28
2023-12-12T07:23:43.104Z,100254.19
2023-12-12T07:26:09.843Z,100258.50
2023-12-12T07:28:36.752Z,100262.06
2023-12-12T07:31:06.325Z,100252.94
2023-12-12T07:33:33.228Z,100251.41
2023-12-12T07:35:59.932Z,100245.06
2023-12-12T07:38:26.750Z,100248.28
2023-12-12T07:40:53.434Z,100247.50
2023-12-12T07:43:20.448Z,100246.63
2023-12-12T07:45:47.441Z,100246.34
2023-12-12T07:48:14.333Z,100249.13
2023-12-12T07:50:41.858Z,100249.13
2023-12-12T07:53:08.525Z,100247.56
2023-12-12T07:55:37.539Z,100237.69
2023-12-12T07:58:04.425Z,100238.13
2023-12-12T08:00:31.207Z,100237.34
2023-12-12T08:03:00.450Z,100240.91
2023-12-12T08:05:32.097Z,100235.84
2023-12-12T08:08:05.365Z,100241.56
2023-12-12T08:10:33.183Z,100236.78
2023-12-12T08:12:59.900Z,100239.22
2023-12-12T08:15:26.572Z,100238.34
2023-12-12T08:17:53.453Z,100245.13
2023-12-12T08:20:20.180Z,100240.53
2023-12-12T08:22:46.876Z,100240.97
2023-12-12T08:25:13.707Z,100234.50
2023-12-12T08:27:40.507Z,100233.25
2023-12-12T08:30:08.644Z,100229.69
2023-12-12T08:32:38.868Z,100226.59
2023-12-12T08:35:08.154Z,100219.28
2023-12-12T08:37:39.552Z,100225.19
2023-12-12T08:40:06.841Z,100216.34
2023-12-12T08:42:33.868Z,100215.19
2023-12-12T08:45:00.586Z,100216.84
2023-12-12T08:47:30.321Z,100216.34
2023-12-12T08:49:57.204Z,100215.78
2023-12-12T08:52:24.054Z,100217.03
2023-12-12T08:54:50.816Z,100210.91
2023-12-12T08:57:20.856Z,100208.81
2023-12-12T08:59:50.504Z,100208.47
2023-12-12T09:02:18.576Z,100212.50
2023-12-12T09:04:45.369Z,100198.06
2023-12-12T09:07:12.076Z,100192.78
2023-12-12T09:09:38.827Z,100193.28
2023-12-12T09:12:06.683Z,100188.72
2023-12-12T09:14:33.275Z,100184.91
2023-12-12T09:17:01.990Z,100192.91
2023-12-12T09:19:28.850Z,100180.25
2023-12-12T09:21:57.186Z,100180.34
2023-12-12T09:24:24.624Z,100174.81
2023-12-12T09:26:53.483Z,100180.03
2023-12-12T09:29:25.434Z,100177.25
2023-12-12T09:31:52.306Z,100173.25
2023-12-12T09:34:18.972Z,100165.06
2023-12-12T09:36:45.689Z,100170.97
2023-12-12T09:39:13.591Z,100162.53
2023-12-12T09:41:45.175Z,100159.31
2023-12-12T09:44:13.628Z,100160.09
2023-12-12T09:46:43.580Z,100152.97
2023-12-12T09:49:13.077Z,100157.75
2023-12-12T09:51:42.153Z,100150.63
2023-12-12T09:54:11.344Z,100144.97
2023-12-12T09:56:41.612Z,100149.66
2023-12-12T09:59:08.512Z,100158.09
2023-12-12T10:01:35.909Z,100185.13
2023-12-12T10:04:09.335Z,100180.81
2023-12-12T10:06:42.834Z,100185.81
2023-12-12T10:09:13.165Z,100187.72
2023-12-12T10:11:41.997Z,100171.06
2023-12-12T10:14:10.204Z,100170.16
2023-12-12T10:16:37.131Z,100156.28
2023-12-12T10:19:04.822Z,100155.81
2023-12-12T10:21:31.801Z,100163.41
2023-12-12T10:23:59.605Z,100144.31
2023-12-12T10:26:30.929Z,100134.75
2023-12-12T10:28:59.479Z,100133.53
2023-12-12T10:31:31.077Z,100139.84
2023-12-12T10:34:00.556Z,100140.31
2023-12-12T10:36:30.112Z,100138.31
2023-12-12T10:39:12.307Z,100122.44
2023-12-12T10:41:39.020Z,100122.44
2023-12-12T10:44:09.924Z,100114.44
2023-12-12T10:46:42.444Z,100106.44
2023-12-12T10:49:12.281Z,100098.31
2023-12-12T10:51:39.190Z,100085.56
2023-12-12T10:54:07.796Z,100082.97
2023-12-12T10:56:39.476Z,100078.84
2023-12-12T10:59:56.160Z,100074.72
2023-12-12T11:02:00.568Z,100067.84
2023-12-12T11:04:27.355Z,100070.84
2023-12-12T11:06:57.409Z,100069.84
2023-12-12T11:09:24.200Z,100068.84
2023-12-12T11:11:55.654Z,100070.94
2023-12-12T11:14:27.609Z,100079.78
2023-12-12T11:17:02.541Z,100065.56
2023-12-12T11:19:29.466Z,100056.56
2023-12-12T11:21:56.585Z,100054.69
2023-12-12T11:25:02.072Z,100043.59
2023-12-12T11:27:29.787Z,100039.25
2023-12-12T11:29:56.434Z,100032.16
2023-12-12T11:32:30.764Z,100021.50
2023-12-12T11:34:58.056Z,100006.06
2023-12-12T11:37:40.707Z,99999.72
2023-12-12T11:40:08.084Z,100004.88
2023-12-12T11:42:34.904Z,100005.28
2023-12-12T11:45:02.901Z,100015.63
2023-12-12T11:47:35.871Z,100003.75
2023-12-12T11:50:16.597Z,99966.09
2023-12-12T11:52:44.088Z,99967.22
2023-12-12T11:55:22.886Z,99969.78
2023-12-12T11:57:50.090Z,99965.25
2023-12-12T12:00:21.872Z,99969.78
2023-12-12T12:02:48.771Z,99960.91
2023-12-12T12:05:16.225Z,99962.44
2023-12-12T12:07:45.387Z,99960.00
2023-12-12T12:10:14.805Z,99947.56
2023-12-12T12:12:50.709Z,99935.00
2023-12-12T12:15:22.124Z,99940.78
2023-12-12T12:17:49.060Z,99929.22
2023-12-12T12:20:15.846Z,99920.78
2023-12-12T12:22:44.762Z,99904.31
2023-12-12T12:25:12.060Z,99908.56
2023-12-12T12:27:50.547Z,99910.09
2023-12-12T12:30:18.689Z,99901.66
2023-12-12T12:33:17.884Z,99911.28
2023-12-12T12:35:51.867Z,99904.41
2023-12-12T12:38:25.227Z,99905.84
2023-12-12T12:40:51.984Z,99911.25
2023-12-12T12:43:19.586Z,99908.81
2023-12-12T12:45:47.084Z,99901.25
2023-12-12T12:48:20.298Z,99893.69
2023-12-12T12:50:49.851Z,99904.03
2023-12-12T12:53:16.928Z,99911.13
2023-12-12T12:55:44.520Z,99909.44
2023-12-12T12:58:12.462Z,99908.56
2023-12-12T13:00:45.930Z,99903.34
2023-12-12T13:03:16.419Z,99911.66
2023-12-12T13:05:43.177Z,99935.44
2023-12-12T13:08:13.325Z,99916.00
2023-12-12T13:10:47.811Z,99903.34
2023-12-12T13:13:19.362Z,99895.88
2023-12-12T13:15:48.309Z,99867.00
2023-12-12T13:18:19.316Z,99877.03
2023-12-12T13:20:49.087Z,99868.94
2023-12-12T13:23:16.112Z,99865.63
2023-12-12T13:25:47.474Z,99862.00
2023-12-12T13:28:16.274Z,99865.44
2023-12-12T13:30:43.021Z,99863.69
2023-12-12T13:33:11.554Z,99856.25
2023-12-12T13:35:38.566Z,99859.91
2023-12-12T13:38:07.901Z,99852.03
2023-12-12T13:40:34.934Z,99857.72
2023-12-12T13:43:02.009Z,99851.06
2023-12-12T13:45:28.931Z,99849.94
2023-12-12T13:47:55.885Z,99838.09
2023-12-12T13:50:23.556Z,99828.19
2023-12-12T13:52:54.424Z,99821.09
2023-12-12T13:55:21.251Z,99823.75
2023-12-12T13:57:48.054Z,99820.06
2023-12-12T14:00:18.353Z,99816.88
2023-12-12T14:02:47.838Z,99808.41
2023-12-12T14:05:14.862Z,99802.84
2023-12-12T14:07:42.285Z,99798.84
2023-12-12T14:10:09.354Z,99805.50
2023-12-12T14:12:36.798Z,99805.03
2023-12-12T14:15:05.107Z,99800.13
2023-12-12T14:17:31.995Z,99802.91
2023-12-12T14:20:03.548Z,99800.91
2023-12-12T14:22:32.632Z,99810.91
2023-12-12T14:25:00.827Z,99795.19
2023-12-12T14:27:27.832Z,99791.63
2023-12-12T14:29:58.248Z,99789.63
2023-12-12T14:32:24.974Z,99784.50
2023-12-12T14:34:52.264Z,99773.38
2023-12-12T14:37:19.020Z,99776.94
2023-12-12T14:39:45.698Z,99770.94
2023-12-12T14:42:12.409Z,99766.50
2023-12-12T14:44:43.697Z,99766.34
2023-12-12T14:47:11.350Z,99770.69
2023-12-12T14:49:40.600Z,99761.59
2023-12-12T14:52:09.583Z,99771.16
2023-12-12T14:54:37.098Z,99765.59
2023-12-12T14:57:10.118Z,99758.47
2023-12-12T14:59:45.193Z,99764.50
2023-12-12T15:02:13.496Z,99758.94
2023-12-12T15:04:40.210Z,99763.72
2023-12-12T15:07:06.988Z,99756.31
2023-12-12T15:09:35.853Z,99765.38
2023-12-12T15:12:02.610Z,99759.84
2023-12-12T15:14:30.688Z,99760.63
2023-12-12T15:16:57.683Z,99766.16
2023-12-12T15:19:24.424Z,99772.50
2023-12-12T15:21:53.859Z,99774.03
2023-12-12T15:24:20.444Z,99765.28
2023-12-12T15:26:47.135Z,99770.84
2023-12-12T15:29:13.883Z,99772.38
2023-12-12T15:31:43.069Z,99768.81
2023-12-12T15:34:10.124Z,99757.69
2023-12-12T15:36:36.866Z,99756.94
2023-12-12T15:39:06.023Z,99769.28
2023-12-12T15:41:32.767Z,99755.38
2023-12-12T15:44:00.821Z,99770.06
2023-12-12T15:46:27.522Z,99762.19
2023-12-12T15:48:54.351Z,99760.63
2023-12-12T15:51:28.297Z,99762.28
2023-12-12T15:53:56.334Z,99777.53
2023-12-12T15:56:23.030Z,99770.88
2023-12-12T15:58:55.208Z,99770.69
2023-12-12T16:01:22.502Z,99771.56
2023-12-12T16:03:55.984Z,99764.63
2023-12-12T16:06:24.737Z,99767.06
2023-12-12T16:08:51.540Z,99766.75
2023-12-12T16:11:20.628Z,99773.63
2023-12-12T16:13:50.456Z,99764.66
2023-12-12T16:16:17.491Z,99761.53
2023-12-12T16:18:44.575Z,99760.44
2023-12-12T16:21:11.415Z,99757.66
2023-12-12T16:23:40.543Z,99757.34
2023-12-12T16:26:07.266Z,99755.34
2023-12-12T16:28:34.080Z,99747.91
2023-12-12T16:31:00.886Z,99753.78
2023-12-12T16:33:29.088Z,99748.56
2023-12-12T16:35:55.911Z,99741.91
2023-12-12T16:38:22.586Z,99747.56
2023-12-12T16:40:51.816Z,99748.81
2023-12-12T16:43:18.720Z,99757.22
2023-12-12T16:45:45.414Z,99758.44
2023-12-12T16:48:13.226Z,99756.13
2023-12-12T16:50:40.540Z,99749.38
2023-12-12T16:53:11.318Z,99743.53
2023-12-12T16:55:38.063Z,99747.22
2023-12-12T16:58:08.715Z,99747.25
2023-12-12T17:00:35.612Z,99742.03
2023-12-12T17:03:07.019Z,99744.25
2023-12-12T17:05:33.930Z,99732.59
2023-12-12T17:08:00.825Z,99737.13
2023-12-12T17:10:30.575Z,99738.47
2023-12-12T17:12:58.556Z,99740.13
2023-12-12T17:15:26.178Z,99734.91
2023-12-12T17:17:52.994Z,99726.59
2023-12-12T17:20:22.214Z,99737.34
2023-12-12T17:22:48.914Z,99732.25
2023-12-12T17:25:18.068Z,99733.91
2023-12-12T17:27:46.994Z,99736.34
2023-12-12T17:30:14.595Z,99745.88
2023-12-12T17:32:42.803Z,99742.78
2023-12-12T17:35:09.768Z,99739.69
2023-12-12T17:37:39.164Z,99738.13
2023-12-12T17:40:06.889Z,99740.53
2023-12-12T17:42:33.655Z,99735.00
2023-12-12T17:45:00.700Z,99737.44
2023-12-12T17:47:30.287Z,99730.38
2023-12-12T17:49:57.247Z,99731.56
2023-12-12T17:52:24.218Z,99738.34
2023-12-12T17:54:55.607Z,99742.66
2023-12-12T17:57:22.466Z,99739.53
2023-12-12T17:59:51.720Z,99737.56
2023-12-12T18:02:18.315Z,99739.22
2023-12-12T18:04:46.334Z,99743.22
2023-12-12T18:07:13.049Z,99747.53
2023-12-12T18:09:40.983Z,99745.66
2023-12-12T18:12:08.015Z,99737.34
2023-12-12T18:14:34.701Z,99735.78
2023-12-12T18:17:04.840Z,99743.44
2023-12-12T18:19:32.626Z,99740.00
2023-12-12T18:21:59.823Z,99739.22
2023-12-12T18:24:29.063Z,99738.88
2023-12-12T18:26:58.277Z,99743.84
2023-12-12T18:29:27.058Z,99739.19
2023-12-12T18:31:54.113Z,99747.94
2023-12-12T18:34:21.149Z,99748.38
2023-12-12T18:36:48.376Z,99751.16
2023-12-12T18:39:16.164Z,99748.84
2023-12-12T18:41:45.606Z,99755.56
2023-12-12T18:44:15.106Z,99752.13
2023-12-12T18:46:43.319Z,99753.34
2023-12-12T18:49:15.352Z,99753.69
2023-12-12T18:51:42.382Z,99757.66
2023-12-12T18:54:09.077Z,99753.34
2023-12-12T18:56:36.020Z,99755.00
2023-12-12T18:59:02.724Z,99751.91
2023-12-12T19:01:31.070Z,99757.44
2023-12-12T19:03:59.065Z,99757.44
2023-12-12T19:06:25.747Z,99763.84
2023-12-12T19:08:53.022Z,99766.19
2023-12-12T19:11:23.378Z,99761.06
2023-12-12T19:13:50.120Z,99771.03
2023-12-12T19:16:17.586Z,99775.34
2023-12-12T19:18:46.640Z,99780.03
2023-12-12T19:21:13.411Z,99776.81
2023-12-12T19:23:40.177Z,99769.28
2023-12-12T19:26:07.377Z,99762.19
2023-12-12T19:28:34.037Z,99767.28
2023-12-12T19:31:01.286Z,99763.75
2023-12-12T19:33:28.358Z,99760.44
2023-12-12T19:35:57.217Z,99758.81
2023-12-12T19:38:23.873Z,99761.41
2023-12-12T19:40:51.326Z,99757.44
2023-12-12T19:43:18.787Z,99752.88
2023-12-12T19:45:46.255Z,99764.81
2023-12-12T19:48:13.076Z,99752.47
2023-12-12T19:50:42.116Z,99754.34
2023-12-12T19:53:10.035Z,99764.59
2023-12-12T19:55:36.675Z,99759.41
2023-12-12T19:58:06.334Z,99758.28
2023-12-12T20:00:33.030Z,99763.59
2023-12-12T20:02:59.686Z,99759.25
2023-12-12T20:05:28.608Z,99758.31
2023-12-12T20:07:55.299Z,99751.47
2023-12-12T20:10:22.087Z,99754.13
2023-12-12T20:12:49.423Z,99764.81
2023-12-12T20:15:16.383Z,99764.50
2023-12-12T20:17:46.029Z,99764.19
2023-12-12T20:20:15.725Z,99765.59
2023-12-12T20:22:45.683Z,99761.69
2023-12-12T20:25:15.066Z,99774.03
2023-12-12T20:27:46.493Z,99769.34
2023-12-12T20:30:15.824Z,99766.56
2023-12-12T20:32:44.281Z,99762.66
2023-12-12T20:35:11.098Z,99758.63
2023-12-12T20:37:37.885Z,99764.59
2023-12-12T20:40:12.022Z,99761.00
2023-12-12T20:42:38.731Z,99769.28
2023-12-12T20:45:07.535Z,99766.94
2023-12-12T20:47:35.471Z,99760.53
2023-12-12T20:50:02.667Z,99769.63
2023-12-12T20:52:29.441Z,99770.78
2023-12-12T20:55:00.709Z,99758.81
2023-12-12T20:57:27.504Z,99756.31
2023-12-12T20:59:54.222Z,99759.81
2023-12-12T21:02:21.053Z,99764.03
2023-12-12T21:07:16.087Z,99774.13
2023-12-12T21:09:45.377Z,99771.16
2023-12-12T21:12:12.060Z,99777.25
2023-12-12T21:14:38.721Z,99772.72
2023-12-12T21:17:08.531Z,99777.28
2023-12-12T21:19:35.600Z,99772.31
2023-12-12T21:22:02.382Z,99780.44
2023-12-12T21:24:29.011Z,99781.78
2023-12-12T21:26:58.148Z,99778.03
2023-12-12T21:29:27.799Z,99773.03
2023-12-12T21:31:54.616Z,99775.13
2023-12-12T21:34:21.436Z,99774.47
2023-12-12T21:36:48.223Z,99774.28
2023-12-12T21:39:17.084Z,99773.59
2023-12-12T21:41:48.433Z,99766.94
2023-12-12T21:44:17.778Z,99779.41
2023-12-12T21:46:44.418Z,99787.06
2023-12-12T21:49:14.439Z,99779.28
2023-12-12T21:51:41.394Z,99779.41
2023-12-12T21:54:10.985Z,99775.97
2023-12-12T21:56:38.016Z,99783.16
2023-12-12T21:59:04.869Z,99784.06
2023-12-12T22:01:37.091Z,99783.41
2023-12-12T22:04:09.225Z,99779.13
2023-12-12T22:06:39.807Z,99786.16
2023-12-12T22:09:08.811Z,99781.31
2023-12-12T22:11:35.490Z,99786.06
2023-12-12T22:14:02.192Z,99780.53
2023-12-12T22:16:31.477Z,99788.03
2023-12-12T22:19:00.239Z,99792.44
2023-12-12T22:21:29.041Z,99794.16
2023-12-12T22:23:56.217Z,99786.66
2023-12-12T22:26:25.128Z,99782.84
2023-12-12T22:28:52.558Z,99778.69
2023-12-12T22:31:21.505Z,99782.56
2023-12-12T22:33:48.517Z,99788.44
2023-12-12T22:36:19.331Z,99788.16
2023-12-12T22:38:49.939Z,99789.91
2023-12-12T22:41:21.232Z,99789.91
2023-12-12T22:43:52.868Z,99783.97
2023-12-12T22:46:20.678Z,99790.13
2023-12-12T22:48:47.510Z,99794.59
2023-12-12T22:51:23.849Z,99792.94
2023-12-12T22:53:50.977Z,99790.16
2023-12-12T22:56:25.050Z,99792.38
2023-12-12T22:58:54.161Z,99803.13
2023-12-12T23:01:22.953Z,99804.09
2023-12-12T23:03:54.054Z,99796.56
2023-12-12T23:06:23.760Z,99799.69
2023-12-12T23:08:51.792Z,99800.34
2023-12-12T23:11:20.750Z,99805.31
2023-12-12T23:13:47.485Z,99812.16
2023-12-12T23:16:14.266Z,99807.59
2023-12-12T23:18:43.258Z,99803.41
2023-12-12T23:21:09.924Z,99804.25
2023-12-12T23:23:36.582Z,99809.13
2023-12-12T23:26:03.201Z,99808.00
2023-12-12T23:28:29.909Z,99813.22
2023-12-12T23:31:05.742Z,99806.56
2023-12-12T23:33:37.366Z,99807.44
2023-12-12T23:36:04.350Z,99809.09
2023-12-12T23:38:30.955Z,99810.31
2023-12-12T23:40:57.623Z,99817.50
2023-12-12T23:43:24.313Z,99807.66
2023-12-12T23:45:51.464Z,99807.31
2023-12-12T23:48:18.543Z,99804.22
2023-12-12T23:50:45.194Z,99805.41
2023-12-12T23:53:13.920Z,99806.63
2023-12-12T23:55:42.995Z,99801.53
2023-12-12T23:58:09.748Z,99797.66
